Time;durP1;ratioP1;P1;durP2;ratioP2;P2;SDS_P1;SDS_P2;PMS_P1;PMS_P2;Temp;Humidity;BMP_temperature;BMP_pressure;BME280_temperature;BME280_humidity;BME280_pressure;Samples;Min_cycle;Max_cycle;Signal;HPM_P1;HPM_P2
2022/06/26 05:14:43;;;;;;;1.60;1.20;;;;;;;21.18;71.06;96951.78;6110008;23;20682;-89
2022/06/26 05:31:03;;;;;;;1.40;1.30;;;;;;;20.51;71.28;96881.22;6113764;23;20191;-90
2022/06/26 05:34:10;;;;;;;1.23;1.20;;;;;;;20.92;71.16;96940.06;6084351;23;20160;-91
2022/06/26 05:37:25;;;;;;;1.27;1.23;;;;;;;23.56;71.05;97368.13;6056808;23;20187;-90
2022/06/26 05:40:23;;;;;;;1.40;1.30;;;;;;;18.91;71.33;96626.56;6077952;23;20188;-90
2022/06/26 05:44:01;;;;;;;1.20;1.20;;;;;;;18.06;70.58;96514.06;6053100;23;20179;-90
2022/06/26 05:46:32;;;;;;;1.17;1.17;;;;;;;19.53;70.84;96736.00;6065888;23;20219;-91
2022/06/26 05:49:26;;;;;;;1.20;1.20;;;;;;;23.50;70.73;97402.19;5964050;23;20170;-90
2022/06/26 05:52:28;;;;;;;1.20;1.10;;;;;;;23.56;70.75;97380.94;6049645;23;20216;-90
2022/06/26 05:55:44;;;;;;;1.30;1.20;;;;;;;20.57;70.66;96955.41;6047958;23;20180;-90
2022/06/26 05:58:42;;;;;;;1.10;1.10;;;;;;;22.38;70.75;97167.50;6082829;23;20239;-90
2022/06/26 06:01:31;;;;;;;1.00;1.00;;;;;;;20.63;70.54;96896.84;6027119;23;20207;-91
2022/06/26 06:04:18;;;;;;;1.40;1.30;;;;;;;20.47;70.83;96846.25;6046619;23;20157;-91
2022/06/26 06:11:23;;;;;;;1.10;1.10;;;;;;;20.58;70.87;96883.09;6087757;23;20176;-94
2022/06/26 06:13:49;;;;;;;1.37;1.30;;;;;;;19.45;70.64;96706.94;6072364;23;20251;-90
2022/06/26 06:16:21;;;;;;;1.23;1.13;;;;;;;20.38;70.55;96838.38;6068844;23;20168;-90
2022/06/26 06:18:48;;;;;;;1.37;1.27;;;;;;;19.77;70.07;96765.50;6091166;23;20163;-90
2022/06/26 06:21:16;;;;;;;1.50;1.40;;;;;;;20.09;71.14;96778.13;6068586;23;20195;-93
2022/06/26 06:23:46;;;;;;;1.20;1.20;;;;;;;20.50;70.57;96857.41;6067693;23;20159;-94
2022/06/26 06:26:14;;;;;;;1.20;1.10;;;;;;;20.67;70.67;96889.28;6069337;23;20159;-90
2022/06/26 06:28:41;;;;;;;1.27;1.20;;;;;;;21.81;70.57;97121.06;6090746;23;20227;-91
2022/06/26 06:31:14;;;;;;;1.30;1.20;;;;;;;18.87;70.33;96587.44;6092612;23;20597;-92
2022/06/26 06:33:59;;;;;;;1.20;1.20;;;;;;;18.16;70.25;96477.88;6071604;23;20162;-90
2022/06/26 06:36:33;;;;;;;1.23;1.23;;;;;;;22.94;70.51;97303.59;6069788;23;20864;-92
2022/06/26 06:39:04;;;;;;;1.20;1.20;;;;;;;19.23;71.22;96651.13;6045544;23;20169;-91
2022/06/26 06:41:36;;;;;;;1.20;1.20;;;;;;;19.46;70.51;96673.84;6068384;23;20186;-92
2022/06/26 06:44:09;;;;;;;3.30;1.20;;;;;;;18.40;70.35;96538.72;6073245;23;20199;-94
2022/06/26 06:46:53;;;;;;;1.30;1.20;;;;;;;20.62;71.14;96921.50;6101407;23;20175;-90
2022/06/26 06:49:20;;;;;;;1.37;1.27;;;;;;;20.71;70.98;96937.03;6075772;23;20171;-94
2022/06/26 06:52:04;;;;;;;1.20;1.20;;;;;;;20.65;70.78;96957.31;6075929;23;20194;-93
2022/06/26 06:54:45;;;;;;;1.10;1.10;;;;;;;19.07;70.82;96671.97;6072828;23;20167;-93
2022/06/26 06:57:11;;;;;;;1.10;1.10;;;;;;;22.34;70.23;97227.13;6047561;23;20208;-92
2022/06/26 06:59:38;;;;;;;1.13;1.13;;;;;;;20.57;69.66;96887.34;6073960;23;20243;-92
2022/06/26 07:02:05;;;;;;;1.40;1.30;;;;;;;20.65;70.71;96923.25;6049608;23;20192;-92
2022/06/26 07:04:51;;;;;;;1.20;1.20;;;;;;;20.64;70.73;96929.19;6075873;23;20196;-90
2022/06/26 07:07:18;;;;;;;1.50;1.40;;;;;;;18.98;70.87;96616.56;6056011;23;20180;-94
2022/06/26 07:09:54;;;;;;;1.37;1.30;;;;;;;20.58;71.05;96906.06;6120239;23;20148;-92
2022/06/26 07:12:20;;;;;;;1.20;1.20;;;;;;;20.58;70.73;96888.22;6121028;23;20140;-90
2022/06/26 07:14:47;;;;;;;1.20;1.20;;;;;;;20.23;70.95;96835.47;6120489;23;20155;-92
2022/06/26 07:17:14;;;;;;;1.30;1.20;;;;;;;21.30;70.61;97004.81;6121059;23;20207;-92
2022/06/26 12:11:19;;;;;;;1.20;1.20;;;;;;;22.52;70.46;97090.13;6107216;23;20215;-92
2022/06/26 12:13:45;;;;;;;1.20;1.13;;;;;;;22.67;70.49;97110.91;6097796;23;20170;-92
2022/06/26 12:16:12;;;;;;;1.30;1.27;;;;;;;22.19;70.62;97024.59;6121097;23;20372;-91
2022/06/26 12:18:39;;;;;;;1.20;1.10;;;;;;;23.18;70.83;97193.84;6121058;23;20170;-91
2022/06/26 12:21:19;;;;;;;1.20;1.20;;;;;;;22.26;70.63;97034.16;6121931;23;20199;-92
2022/06/26 12:23:47;;;;;;;1.10;1.10;;;;;;;22.05;70.48;96990.22;6098163;23;20148;-92
2022/06/26 12:26:23;;;;;;;1.13;1.10;;;;;;;22.56;70.61;97102.16;6073503;23;20197;-91
2022/06/26 12:28:58;;;;;;;1.17;1.10;;;;;;;22.52;70.78;97067.09;6097075;23;20167;-92
2022/06/26 12:31:25;;;;;;;1.23;1.23;;;;;;;22.80;70.82;97117.13;6122198;23;20194;-92
2022/06/26 12:33:52;;;;;;;1.30;1.20;;;;;;;22.58;70.75;97085.13;6121838;23;20164;-92
2022/06/26 12:36:18;;;;;;;1.10;1.10;;;;;;;23.13;70.81;97167.28;6097190;23;20174;-92
2022/06/26 12:38:45;;;;;;;1.10;1.10;;;;;;;23.19;70.95;97180.22;6096604;23;20163;-92
2022/06/26 12:41:19;;;;;;;1.50;1.40;;;;;;;22.66;70.78;97091.25;6121552;23;20195;-93
2022/06/26 12:43:54;;;;;;;1.13;1.10;;;;;;;22.62;71.00;97089.47;6098020;23;20144;-92
2022/06/26 12:46:24;;;;;;;1.20;1.20;;;;;;;22.78;70.93;97108.53;6097782;23;20176;-92
2022/06/26 12:48:51;;;;;;;1.30;1.30;;;;;;;22.43;70.87;97060.91;6122198;23;20163;-92
2022/06/26 12:51:17;;;;;;;1.30;1.20;;;;;;;22.43;70.61;97061.75;6098890;23;20180;-91
2022/06/26 12:53:44;;;;;;;1.20;1.20;;;;;;;23.19;70.97;97174.22;6123875;23;20187;-92
2022/06/26 12:56:11;;;;;;;3.00;1.10;;;;;;;23.21;70.83;97180.22;6123370;23;20179;-93
2022/06/26 12:58:39;;;;;;;1.20;1.20;;;;;;;23.20;70.74;97174.22;6075133;23;20171;-93
2022/06/26 13:01:06;;;;;;;3.87;1.30;;;;;;;22.43;70.61;97059.22;6098914;23;20224;-92
2022/06/26 13:03:33;;;;;;;1.30;1.20;;;;;;;22.45;70.72;97049.00;6075323;23;20349;-93
2022/06/26 13:06:00;;;;;;;1.90;1.20;;;;;;;22.52;70.76;97050.84;6122956;23;20164;-92
2022/06/26 13:08:26;;;;;;;1.73;1.20;;;;;;;23.22;70.89;97171.69;6124322;23;20187;-92
2022/06/26 13:10:53;;;;;;;1.13;1.13;;;;;;;22.65;70.62;97070.75;6123883;23;20236;-92
2022/06/26 13:13:19;;;;;;;1.43;1.40;;;;;;;23.23;70.72;97175.97;6123845;23;20269;-91
2022/06/26 13:15:46;;;;;;;1.23;1.20;;;;;;;21.88;70.98;96938.75;6099322;23;20183;-92
2022/06/26 13:18:13;;;;;;;1.10;1.10;;;;;;;22.87;70.82;97103.56;6123807;23;20187;-92
2022/06/26 13:20:39;;;;;;;1.23;1.20;;;;;;;23.02;70.97;97126.91;6123708;23;20224;-92
2022/06/26 13:23:06;;;;;;;1.20;1.20;;;;;;;22.44;70.81;97026.78;6099304;23;20191;-93
2022/06/26 13:25:33;;;;;;;1.43;1.33;;;;;;;23.36;70.94;97185.66;6123500;23;20212;-93
2022/06/26 13:27:59;;;;;;;1.10;1.10;;;;;;;22.44;70.92;97021.66;6124556;23;20159;-93
2022/06/26 13:30:26;;;;;;;1.50;1.40;;;;;;;22.66;70.85;97057.09;6123718;23;20188;-89
2022/06/26 13:32:52;;;;;;;1.30;1.20;;;;;;;22.29;71.05;97003.47;6095287;23;20187;-92
2022/06/26 13:35:19;;;;;;;2.67;1.40;;;;;;;22.78;70.90;97075.22;6069293;23;20160;-93
2022/06/26 13:37:51;;;;;;;1.30;1.20;;;;;;;22.88;70.90;97090.78;6092195;23;20176;-92
2022/06/26 13:40:17;;;;;;;1.37;1.20;;;;;;;23.26;71.02;97158.13;6090431;23;20180;-92
2022/06/26 13:42:44;;;;;;;1.23;1.20;;;;;;;22.96;70.69;97108.84;6115368;23;20410;-89
2022/06/26 13:45:10;;;;;;;1.20;1.20;;;;;;;22.88;71.02;97088.22;6090831;23;20165;-93
2022/06/26 13:47:37;;;;;;;1.53;1.27;;;;;;;22.63;70.98;97047.66;6090712;23;20164;-92
2022/06/26 13:50:05;;;;;;;1.20;1.10;;;;;;;23.65;70.96;97215.19;6115090;23;20167;-92
2022/06/26 13:52:31;;;;;;;1.33;1.30;;;;;;;22.71;70.93;97047.78;6090891;23;20163;-92
2022/06/26 13:54:58;;;;;;;1.30;1.30;;;;;;;22.41;70.82;96999.41;6114134;23;20175;-92
2022/06/26 13:57:25;;;;;;;1.43;1.20;;;;;;;22.65;70.80;97038.28;6115412;23;20174;-91
2022/06/26 13:59:52;;;;;;;1.10;1.10;;;;;;;22.42;70.75;96992.59;6115118;23;20395;-91
2022/06/26 14:02:19;;;;;;;1.10;1.10;;;;;;;23.70;70.95;97218.69;6114790;23;20188;-92
2022/06/26 14:04:45;;;;;;;1.30;1.27;;;;;;;22.66;70.74;97029.78;6114883;23;20170;-91
2022/06/26 14:07:12;;;;;;;1.10;1.10;;;;;;;22.45;70.90;96998.66;6114843;23;20187;-92
2022/06/26 14:09:40;;;;;;;1.30;1.20;;;;;;;22.89;70.55;97066.03;6090569;23;20163;-92
2022/06/26 14:12:09;;;;;;;1.20;1.20;;;;;;;22.89;70.73;97055.78;6113905;23;20515;-92
2022/06/26 14:14:36;;;;;;;1.30;1.20;;;;;;;22.48;70.90;96993.59;6113666;23;20164;-92
2022/06/26 14:17:03;;;;;;;1.20;1.20;;;;;;;22.98;70.95;97086.69;6114615;23;20341;-92
2022/06/26 14:19:29;;;;;;;1.10;1.10;;;;;;;23.29;71.17;97124.81;6090618;23;20175;-92
2022/06/26 14:27:26;;;;;;;1.20;1.20;;;;;;;23.29;71.08;97124.81;6115045;23;20151;-91
2022/06/26 14:29:53;;;;;;;1.10;1.10;;;;;;;23.29;70.30;97122.25;6114517;23;20164;-93
2022/06/26 14:32:19;;;;;;;1.10;1.10;;;;;;;23.24;71.46;97111.94;6112532;23;20188;-92
2022/06/26 14:34:46;;;;;;;1.10;1.10;;;;;;;22.71;70.91;97024.75;6089322;23;20179;-91
2022/06/26 14:37:13;;;;;;;1.30;1.20;;;;;;;22.43;70.97;96961.03;6115805;23;20164;-91
2022/06/26 14:39:42;;;;;;;1.30;1.20;;;;;;;22.06;70.55;96921.16;6113504;23;20179;-92
2022/06/26 14:42:09;;;;;;;1.20;1.20;;;;;;;22.81;70.84;97026.59;6113882;23;20188;-92
2022/06/26 14:44:36;;;;;;;1.30;1.20;;;;;;;22.55;71.10;96987.75;6115092;23;20148;-92
2022/06/26 14:47:03;;;;;;;1.67;1.40;;;;;;;22.69;70.56;97000.78;6090136;23;20190;-92
2022/06/26 14:49:29;;;;;;;1.07;1.07;;;;;;;23.30;71.02;97117.16;6115032;23;20164;-91
2022/06/26 14:51:56;;;;;;;1.20;1.10;;;;;;;23.32;70.97;97109.50;6113076;23;20207;-92
2022/06/26 14:54:24;;;;;;;1.17;1.17;;;;;;;23.30;70.76;97112.03;6089576;23;20190;-92
2022/06/26 14:56:50;;;;;;;1.00;1.00;;;;;;;22.41;70.57;96961.00;6067520;23;20191;-90
2022/06/26 14:59:17;;;;;;;1.40;1.30;;;;;;;23.29;71.02;97106.88;6117510;23;20179;-93
2022/06/26 15:01:43;;;;;;;1.10;1.10;;;;;;;21.73;70.42;96855.72;6072061;23;20183;-92
2022/06/26 15:04:10;;;;;;;1.37;1.20;;;;;;;21.55;70.61;96823.84;6119744;23;20160;-92
2022/06/26 15:06:37;;;;;;;1.30;1.20;;;;;;;22.16;70.79;96933.28;6045756;23;20168;-91
2022/06/26 15:09:04;;;;;;;1.20;1.20;;;;;;;21.88;70.90;96882.47;6093696;23;20160;-91
2022/06/26 15:11:30;;;;;;;1.07;1.07;;;;;;;22.58;71.01;96994.63;6118501;23;20257;-92
2022/06/26 15:13:57;;;;;;;1.20;1.20;;;;;;;23.31;70.71;97105.22;6113537;23;20179;-89
2022/06/26 15:16:23;;;;;;;1.17;1.17;;;;;;;23.26;71.29;97094.88;6111246;23;20184;-92
2022/06/26 15:18:50;;;;;;;1.10;1.10;;;;;;;22.54;70.90;96973.25;6093074;23;20148;-92
2022/06/26 15:21:17;;;;;;;1.40;1.30;;;;;;;22.56;70.79;96974.09;6120579;23;20192;-92
2022/06/26 15:23:44;;;;;;;1.20;1.20;;;;;;;23.31;70.89;97097.53;6121531;23;20168;-92
2022/06/26 15:26:11;;;;;;;1.50;1.40;;;;;;;22.59;70.87;96984.41;6073804;23;20163;-92
2022/06/26 15:28:38;;;;;;;1.23;1.20;;;;;;;22.78;70.57;97006.94;6074165;23;20168;-92
2022/06/26 15:31:05;;;;;;;1.03;1.03;;;;;;;22.60;70.88;96980.16;6098282;23;20187;-93
2022/06/26 15:33:32;;;;;;;1.00;1.00;;;;;;;23.55;70.95;97154.31;6097540;23;20236;-94
2022/06/26 15:35:58;;;;;;;1.23;1.20;;;;;;;22.58;71.00;96971.56;6074506;23;20168;-92
2022/06/26 15:38:28;;;;;;;1.10;1.10;;;;;;;23.27;70.83;97088.06;6099052;23;20175;-91
2022/06/26 15:40:55;;;;;;;1.30;1.20;;;;;;;23.33;70.58;97095.84;6097992;23;20207;-92
2022/06/26 15:43:23;;;;;;;1.20;1.20;;;;;;;23.08;70.71;97050.13;6098239;23;20171;-92
2022/06/26 15:45:49;;;;;;;1.07;1.07;;;;;;;22.81;70.69;97024.91;6074373;23;20168;-92
2022/06/26 15:48:16;;;;;;;1.10;1.10;;;;;;;22.91;71.26;97024.22;6098327;23;20183;-92
2022/06/26 15:50:43;;;;;;;1.40;1.30;;;;;;;23.01;70.88;97038.06;6122045;23;20354;-91
2022/06/26 15:53:09;;;;;;;1.10;1.10;;;;;;;22.73;71.04;96989.75;6121787;23;20159;-92
2022/06/26 15:55:40;;;;;;;1.00;1.00;;;;;;;22.22;70.85;96924.84;6097518;23;20187;-92
2022/06/26 15:58:06;;;;;;;1.23;1.10;;;;;;;23.37;70.47;97097.63;6122150;23;20219;-92
2022/06/26 16:00:33;;;;;;;1.30;1.20;;;;;;;23.71;70.81;97161.41;6122362;23;20195;-93
2022/06/26 16:02:59;;;;;;;1.10;1.10;;;;;;;22.60;71.14;96970.78;6097442;23;20195;-91
2022/06/26 16:05:26;;;;;;;1.30;1.20;;;;;;;22.99;70.88;97032.91;6122040;23;20183;-92
2022/06/26 16:07:53;;;;;;;1.20;1.10;;;;;;;22.78;70.96;96994.13;6122453;23;20160;-91
2022/06/26 16:10:19;;;;;;;1.30;1.20;;;;;;;22.92;70.72;97019.97;6122298;23;20164;-91
2022/06/26 16:12:46;;;;;;;1.57;1.20;;;;;;;22.89;71.07;97007.94;6122536;23;20178;-90
2022/06/26 16:15:13;;;;;;;2.37;1.20;;;;;;;22.65;71.28;96966.56;6121694;23;20170;-92
2022/06/26 16:17:39;;;;;;;1.00;1.00;;;;;;;21.87;70.42;96827.00;6122303;23;20192;-92
2022/06/26 16:20:07;;;;;;;1.00;1.00;;;;;;;22.31;71.00;96928.41;6122095;23;20190;-92
2022/06/26 16:28:05;;;;;;;2.07;1.20;;;;;;;22.93;70.62;97002.06;6101515;23;20148;-91
2022/06/26 16:30:31;;;;;;;1.20;1.20;;;;;;;22.52;70.98;96927.94;6122150;23;20183;-91
2022/06/26 16:32:58;;;;;;;1.10;1.10;;;;;;;23.74;71.19;97135.78;6072998;23;20164;-92
2022/06/26 16:35:25;;;;;;;1.77;1.17;;;;;;;22.59;70.97;96935.72;6098012;23;20183;-92
2022/06/26 16:37:52;;;;;;;1.20;1.20;;;;;;;23.09;70.87;97028.75;6098324;23;20164;-92
2022/06/26 16:40:21;;;;;;;2.03;1.20;;;;;;;22.79;70.73;96967.66;6097446;23;20203;-90
2022/06/26 16:42:48;;;;;;;1.20;1.20;;;;;;;22.49;71.12;96938.09;6095521;23;20187;-89
2022/06/26 16:45:15;;;;;;;1.00;1.00;;;;;;;23.73;70.99;97146.91;6112137;23;20180;-89
2022/06/26 16:47:41;;;;;;;1.10;1.10;;;;;;;23.40;71.09;97069.44;6109852;23;20179;-90
2022/06/26 16:50:09;;;;;;;1.10;1.10;;;;;;;22.51;70.99;96918.53;6118893;23;20183;-90
2022/06/26 16:52:36;;;;;;;1.20;1.10;;;;;;;22.56;70.73;96929.72;6094729;23;20187;-90
2022/06/26 16:55:04;;;;;;;1.10;1.10;;;;;;;22.52;70.70;96922.81;6119138;23;20179;-89
2022/06/26 16:57:31;;;;;;;1.00;1.00;;;;;;;22.40;70.59;96900.41;6093781;23;20206;-90
2022/06/26 16:59:57;;;;;;;2.00;1.37;;;;;;;23.32;70.50;97058.22;6118594;23;20183;-90
2022/06/26 17:02:24;;;;;;;1.10;1.10;;;;;;;23.04;70.59;97007.34;6119200;23;20208;-90
2022/06/26 17:04:50;;;;;;;1.30;1.10;;;;;;;23.41;70.95;97062.63;6095132;23;20187;-89
2022/06/26 17:07:17;;;;;;;1.03;1.03;;;;;;;23.28;70.61;97057.31;6120151;23;20191;-90
2022/06/26 17:09:44;;;;;;;1.00;1.00;;;;;;;23.03;70.52;96990.22;6120020;23;20167;-89
2022/06/26 17:12:10;;;;;;;1.17;1.17;;;;;;;23.31;70.76;97048.81;6120217;23;20196;-90
2022/06/26 17:14:37;;;;;;;1.10;1.10;;;;;;;22.97;70.81;96990.13;6093272;23;20167;-89
2022/06/26 17:17:04;;;;;;;1.10;1.10;;;;;;;23.57;70.86;97093.66;6119824;23;20399;-90
2022/06/26 17:19:30;;;;;;;1.00;1.00;;;;;;;22.79;70.81;96961.66;6121478;23;20167;-90
2022/06/26 17:21:57;;;;;;;1.27;1.17;;;;;;;22.78;70.45;96954.81;6120146;23;20200;-90
2022/06/26 17:24:27;;;;;;;1.10;1.10;;;;;;;23.18;70.69;97027.19;6118589;23;20171;-91
2022/06/26 17:26:54;;;;;;;1.20;1.20;;;;;;;23.33;70.73;97053.09;6088106;23;20184;-90
2022/06/26 17:29:37;;;;;;;1.10;1.10;;;;;;;21.84;70.80;96792.88;6055472;23;20206;-89
2022/06/26 17:32:15;;;;;;;2.73;1.17;;;;;;;21.82;70.43;96804.75;6083556;23;20266;-89
2022/06/26 17:34:41;;;;;;;1.73;1.20;;;;;;;23.53;70.84;97086.72;6082497;23;20176;-90
2022/06/26 17:37:10;;;;;;;1.07;1.07;;;;;;;23.08;70.92;97011.66;6112309;23;20186;-89
2022/06/26 17:39:37;;;;;;;1.20;1.10;;;;;;;23.32;70.83;97058.22;6111709;23;20180;-90
2022/06/26 17:44:44;;;;;;;1.10;1.10;;;;;;;22.33;70.45;96913.97;6079156;23;20520;-92
2022/06/26 17:50:18;;;;;;;1.00;1.00;;;;;;;22.32;70.95;96883.22;6075943;23;20204;-89
2022/06/26 17:52:45;;;;;;;1.10;1.10;;;;;;;23.30;70.95;97055.63;6080927;23;20183;-89
2022/06/26 17:55:14;;;;;;;1.23;1.20;;;;;;;23.20;70.80;97051.19;6030611;23;20191;-90
2022/06/26 17:57:41;;;;;;;1.07;1.07;;;;;;;23.34;70.73;97061.66;6077904;23;20180;-89
2022/06/26 18:00:08;;;;;;;0.97;0.97;;;;;;;22.91;70.68;96988.34;6078126;23;20181;-90
2022/06/26 18:02:35;;;;;;;1.03;1.03;;;;;;;23.11;70.50;97024.53;6078544;23;20204;-90
2022/06/26 18:05:03;;;;;;;1.07;1.07;;;;;;;22.84;70.53;96988.22;6077747;23;20496;-90
2022/06/26 18:07:30;;;;;;;1.00;1.00;;;;;;;23.54;70.77;97105.56;6076021;23;20195;-90
2022/06/26 18:09:56;;;;;;;1.10;1.10;;;;;;;23.53;70.86;97104.69;6078580;23;20190;-90
2022/06/26 18:18:10;;;;;;;1.20;1.10;;;;;;;22.22;71.44;96907.78;6119955;23;20298;-93
2022/06/26 18:20:40;;;;;;;2.87;1.20;;;;;;;18.44;70.54;96232.75;6107670;23;20139;-93
2022/06/26 18:23:08;;;;;;;1.10;1.10;;;;;;;20.64;70.94;96674.78;6101152;23;20176;-92
2022/06/26 18:25:35;;;;;;;1.07;1.07;;;;;;;19.78;70.82;96511.44;6077567;23;20204;-93
2022/06/26 18:28:02;;;;;;;1.17;1.17;;;;;;;18.62;70.76;96263.66;6052891;23;20196;-92
